Time;durP1;ratioP1;P1;durP2;ratioP2;P2;SDS_P1;SDS_P2;PMS_P1;PMS_P2;Temp;Humidity;BMP_temperature;BMP_pressure;BME280_temperature;BME280_humidity;BME280_pressure;Samples;Min_cycle;Max_cycle;Signal;HPM_P1;HPM_P2
2024/04/05 00:00:50;;;;;;;2.83;1.10;;;21.30;62.90;;;;;;6147729;22;87476;-84
2024/04/05 00:03:23;;;;;;;2.70;1.00;;;21.30;62.70;;;;;;6145648;22;88342;-86
2024/04/05 00:05:48;;;;;;;1.27;0.65;;;21.30;62.60;;;;;;6147518;22;87179;-84
2024/04/05 00:08:14;;;;;;;2.25;1.02;;;21.30;62.70;;;;;;6146147;22;87474;-85
2024/04/05 00:10:40;;;;;;;2.40;0.90;;;21.30;62.50;;;;;;6146733;22;87658;-84
2024/04/05 00:13:06;;;;;;;2.78;0.88;;;21.30;62.60;;;;;;6120919;22;90251;-85
2024/04/05 00:15:37;;;;;;;3.47;1.20;;;21.30;62.60;;;;;;6147422;22;86825;-83
2024/04/05 00:18:03;;;;;;;1.85;0.80;;;21.30;62.80;;;;;;6147035;22;87225;-85
2024/04/05 00:20:30;;;;;;;2.67;0.93;;;21.30;62.60;;;;;;6146156;22;87944;-84
2024/04/05 00:22:56;;;;;;;3.58;1.58;;;21.30;62.60;;;;;;6098116;22;89509;-85
2024/04/05 00:25:23;;;;;;;2.40;1.20;;;21.30;62.60;;;;;;6145475;22;87380;-84
2024/04/05 00:27:49;;;;;;;1.98;0.73;;;21.30;62.50;;;;;;6146174;22;88370;-84
2024/04/05 00:30:14;;;;;;;2.05;1.08;;;21.30;62.70;;;;;;6131923;22;87340;-86
2024/04/05 00:32:41;;;;;;;2.50;0.90;;;21.30;62.70;;;;;;6119543;22;90443;-85
2024/04/05 00:35:07;;;;;;;1.55;0.85;;;21.30;62.60;;;;;;6146483;22;87449;-84
2024/04/05 00:37:33;;;;;;;2.25;0.95;;;21.20;62.50;;;;;;6146700;22;87179;-82
2024/04/05 00:40:09;;;;;;;1.60;0.80;;;21.30;62.80;;;;;;6147294;22;87308;-84
2024/04/05 00:42:37;;;;;;;3.40;0.88;;;21.30;62.50;;;;;;6147083;22;87830;-85
2024/04/05 00:45:04;;;;;;;1.63;0.70;;;21.30;62.50;;;;;;6148501;22;86601;-85
2024/04/05 00:47:32;;;;;;;1.60;0.80;;;21.30;62.50;;;;;;6146264;22;87384;-86
2024/04/05 00:50:00;;;;;;;1.67;0.80;;;21.20;62.40;;;;;;6147170;22;87928;-84
2024/04/05 00:52:27;;;;;;;2.85;1.08;;;21.20;62.40;;;;;;6147663;22;87947;-83
2024/04/05 00:54:53;;;;;;;1.30;0.65;;;21.20;62.60;;;;;;6149453;22;87149;-85
2024/04/05 00:57:20;;;;;;;2.80;0.80;;;21.20;62.50;;;;;;6147938;22;87263;-85
2024/04/05 00:59:46;;;;;;;2.15;0.68;;;21.20;62.50;;;;;;6148173;22;88350;-83
2024/04/05 01:02:13;;;;;;;1.65;0.88;;;21.20;62.30;;;;;;6119497;22;90982;-85
2024/04/05 01:04:38;;;;;;;1.05;0.60;;;21.20;62.40;;;;;;6147805;22;88501;-85
2024/04/05 01:07:04;;;;;;;2.63;0.88;;;21.20;62.40;;;;;;6147363;22;87112;-85
2024/04/05 01:09:31;;;;;;;2.95;0.85;;;21.20;62.20;;;;;;6147433;22;87097;-83
2024/04/05 01:11:58;;;;;;;2.30;1.25;;;21.20;62.30;;;;;;6148314;22;87636;-85
2024/04/05 01:14:24;;;;;;;1.73;0.93;;;21.20;62.30;;;;;;6148268;22;86873;-84
2024/04/05 01:17:00;;;;;;;2.03;0.85;;;21.20;62.40;;;;;;6119440;22;88041;-85
2024/04/05 01:19:26;;;;;;;1.45;0.75;;;21.20;62.40;;;;;;6147691;22;88472;-85
2024/04/05 01:21:53;;;;;;;2.65;1.08;;;21.20;62.30;;;;;;6148089;22;87832;-83
2024/04/05 01:24:18;;;;;;;2.40;1.10;;;21.20;62.40;;;;;;6147509;22;86875;-84
2024/04/05 01:26:44;;;;;;;2.40;1.52;;;21.20;62.30;;;;;;6148352;22;87309;-85
2024/04/05 01:29:10;;;;;;;1.45;0.70;;;21.20;62.30;;;;;;6148572;22;87649;-85
2024/04/05 01:31:35;;;;;;;1.98;0.93;;;21.20;62.30;;;;;;6132502;22;87181;-84
2024/04/05 01:34:01;;;;;;;2.53;0.82;;;21.20;62.50;;;;;;6148906;22;86380;-85
2024/04/05 01:36:27;;;;;;;1.45;0.73;;;21.20;62.20;;;;;;6147300;22;87203;-84
2024/04/05 01:38:52;;;;;;;1.58;0.60;;;21.20;62.30;;;;;;6146662;22;87285;-84
2024/04/05 01:41:21;;;;;;;1.88;1.33;;;21.10;62.30;;;;;;6146744;22;88095;-84
2024/04/05 01:43:47;;;;;;;1.40;0.70;;;21.10;62.20;;;;;;6148245;22;88121;-85
2024/04/05 01:46:13;;;;;;;1.38;0.63;;;21.10;62.20;;;;;;6147037;22;88126;-85
2024/04/05 01:48:38;;;;;;;1.35;0.80;;;21.10;62.10;;;;;;6147242;22;88015;-85
2024/04/05 01:51:04;;;;;;;2.58;0.80;;;21.10;62.00;;;;;;6147329;22;87911;-84
2024/04/05 01:53:30;;;;;;;1.35;0.80;;;21.10;62.10;;;;;;6119556;22;87337;-83
2024/04/05 01:56:16;;;;;;;2.42;0.85;;;21.10;62.10;;;;;;6147708;22;88873;-87
2024/04/05 01:58:42;;;;;;;1.92;0.80;;;21.10;62.20;;;;;;6148203;22;88542;-85
2024/04/05 02:01:08;;;;;;;2.17;1.08;;;21.10;62.10;;;;;;6148573;22;87215;-84
2024/04/05 02:03:34;;;;;;;1.30;0.70;;;21.10;62.10;;;;;;6146912;22;87357;-86
2024/04/05 02:05:59;;;;;;;3.08;1.25;;;21.10;62.20;;;;;;6147226;22;87839;-85
2024/04/05 02:08:25;;;;;;;1.00;0.82;;;21.10;62.20;;;;;;6147713;22;88090;-86
2024/04/05 02:10:51;;;;;;;7.05;1.52;;;21.10;62.00;;;;;;6147465;22;87182;-85
2024/04/05 02:13:16;;;;;;;6.60;1.27;;;21.10;62.10;;;;;;6147813;22;87572;-85
2024/04/05 02:15:48;;;;;;;1.95;0.93;;;21.10;62.20;;;;;;6148813;22;87538;-85
2024/04/05 02:18:14;;;;;;;1.10;0.63;;;21.10;62.10;;;;;;6146652;22;87578;-84
2024/04/05 02:20:41;;;;;;;2.25;0.88;;;21.10;62.20;;;;;;6146662;22;87193;-83
2024/04/05 02:23:07;;;;;;;1.83;0.95;;;21.00;62.20;;;;;;6133302;22;86647;-85
2024/04/05 02:25:33;;;;;;;9.48;1.05;;;21.00;62.00;;;;;;6147083;22;87489;-85
2024/04/05 02:27:58;;;;;;;0.85;0.60;;;21.00;62.20;;;;;;6148796;22;88534;-83
2024/04/05 02:30:24;;;;;;;3.40;1.20;;;21.00;62.00;;;;;;6129587;22;88787;-81
2024/04/05 02:32:50;;;;;;;2.05;0.68;;;21.10;62.70;;;;;;6146724;22;87457;-85
2024/04/05 02:35:21;;;;;;;1.38;0.60;;;21.00;62.00;;;;;;6133699;22;87319;-84
2024/04/05 02:37:46;;;;;;;2.08;0.93;;;21.10;62.00;;;;;;6120877;22;90703;-82
2024/04/05 02:40:12;;;;;;;1.60;0.80;;;21.00;62.00;;;;;;6146930;22;88636;-85
2024/04/05 02:42:38;;;;;;;1.38;0.60;;;21.10;62.00;;;;;;6148593;22;87248;-83
2024/04/05 02:45:03;;;;;;;2.17;1.38;;;21.10;62.10;;;;;;6148902;22;87571;-85
2024/04/05 02:47:29;;;;;;;1.25;0.60;;;21.10;62.10;;;;;;6147950;22;86740;-85
2024/04/05 02:49:55;;;;;;;2.45;1.08;;;21.00;61.80;;;;;;6147726;22;87202;-85
2024/04/05 02:52:20;;;;;;;1.52;0.80;;;21.00;62.00;;;;;;6148188;22;86889;-84
2024/04/05 02:54:46;;;;;;;1.23;0.60;;;21.00;62.00;;;;;;6148284;22;87941;-85
2024/04/05 02:57:12;;;;;;;1.40;0.80;;;21.00;61.80;;;;;;6148367;22;87947;-85
2024/04/05 02:59:37;;;;;;;1.08;0.60;;;21.00;62.00;;;;;;6148578;22;87570;-84
2024/04/05 03:02:03;;;;;;;2.83;0.90;;;21.00;61.90;;;;;;6148053;22;87333;-84
2024/04/05 03:04:30;;;;;;;1.38;0.80;;;21.00;61.90;;;;;;6147996;22;87280;-87
2024/04/05 03:06:55;;;;;;;1.70;0.80;;;21.00;62.10;;;;;;6148321;22;87927;-85
2024/04/05 03:09:21;;;;;;;2.08;0.90;;;21.00;62.10;;;;;;6146365;22;87173;-85
2024/04/05 03:11:47;;;;;;;1.75;0.68;;;21.00;62.10;;;;;;6148791;22;86117;-85
2024/04/05 03:14:14;;;;;;;1.15;0.80;;;21.00;62.00;;;;;;6147491;22;87002;-84
2024/04/05 03:16:39;;;;;;;1.52;0.82;;;21.00;62.00;;;;;;6147248;22;87760;-85
2024/04/05 03:19:05;;;;;;;1.58;0.73;;;21.00;61.90;;;;;;6147572;22;87983;-85
2024/04/05 03:21:32;;;;;;;2.13;0.90;;;21.00;61.90;;;;;;6148613;22;87336;-82
2024/04/05 03:24:08;;;;;;;1.30;0.70;;;20.90;61.90;;;;;;6148783;22;87325;-86
2024/04/05 03:26:36;;;;;;;2.78;1.02;;;21.00;61.80;;;;;;6107671;22;89156;-85
2024/04/05 03:29:03;;;;;;;1.95;0.93;;;20.90;61.80;;;;;;6147796;22;87322;-85
2024/04/05 03:31:29;;;;;;;3.38;1.10;;;21.00;61.80;;;;;;6105461;22;88549;-85
2024/04/05 03:33:54;;;;;;;1.55;0.70;;;21.00;61.70;;;;;;6148041;22;87453;-84
2024/04/05 03:36:20;;;;;;;3.35;1.02;;;21.00;61.80;;;;;;6148560;22;86372;-85
2024/04/05 03:38:45;;;;;;;1.83;0.70;;;21.00;61.80;;;;;;6130520;22;87554;-84
2024/04/05 03:41:11;;;;;;;2.03;0.82;;;20.90;61.70;;;;;;6147213;22;87221;-87
2024/04/05 03:43:37;;;;;;;1.25;0.80;;;21.00;61.60;;;;;;6147338;22;87949;-85
2024/04/05 03:46:03;;;;;;;1.33;0.70;;;21.00;61.60;;;;;;6149001;22;87684;-85
2024/04/05 03:48:28;;;;;;;1.77;0.70;;;21.00;61.50;;;;;;6147671;22;87741;-85
2024/04/05 03:50:54;;;;;;;1.90;1.13;;;21.00;61.60;;;;;;6148447;22;87256;-85
2024/04/05 03:53:20;;;;;;;1.75;0.57;;;20.90;61.50;;;;;;6147367;22;87234;-86
2024/04/05 03:55:46;;;;;;;1.90;0.80;;;20.90;61.60;;;;;;6147624;22;88341;-85
2024/04/05 03:58:11;;;;;;;0.95;0.55;;;20.90;61.60;;;;;;6148301;22;87297;-82
2024/04/05 04:00:37;;;;;;;2.80;1.05;;;20.90;61.70;;;;;;6148730;22;86446;-84
2024/04/05 04:03:03;;;;;;;1.05;0.60;;;20.90;61.50;;;;;;6147790;22;87024;-84
2024/04/05 04:05:28;;;;;;;2.20;1.30;;;20.90;61.70;;;;;;6147600;22;87240;-86
2024/04/05 04:07:54;;;;;;;1.45;0.60;;;20.90;61.70;;;;;;6145971;22;87867;-85
2024/04/05 04:10:28;;;;;;;0.70;0.50;;;20.90;61.60;;;;;;6146928;22;87726;-83
2024/04/05 04:12:53;;;;;;;1.13;0.80;;;20.90;61.60;;;;;;6147781;22;87400;-86
2024/04/05 04:15:19;;;;;;;1.35;0.60;;;20.90;61.60;;;;;;6147166;22;87808;-85
2024/04/05 04:17:45;;;;;;;1.85;0.52;;;20.90;61.50;;;;;;6147847;22;87136;-84
2024/04/05 04:20:10;;;;;;;1.45;0.60;;;20.90;61.50;;;;;;6147857;22;87096;-85
2024/04/05 04:22:38;;;;;;;1.27;0.77;;;20.90;61.50;;;;;;6147723;22;87006;-86
2024/04/05 04:25:04;;;;;;;2.47;0.88;;;20.90;61.50;;;;;;6149378;22;87418;-86
2024/04/05 04:27:29;;;;;;;1.48;0.80;;;20.90;61.50;;;;;;6147177;22;87402;-87
2024/04/05 04:29:55;;;;;;;1.52;0.80;;;20.90;61.50;;;;;;6147273;22;87242;-86
2024/04/05 04:32:22;;;;;;;1.83;0.60;;;20.90;61.40;;;;;;6145473;22;87808;-85
2024/04/05 04:34:48;;;;;;;1.80;0.80;;;20.90;61.40;;;;;;6146777;22;87663;-85
2024/04/05 04:37:15;;;;;;;1.35;0.57;;;20.90;61.50;;;;;;6146884;22;87704;-85
2024/04/05 04:39:41;;;;;;;1.17;0.60;;;20.90;61.20;;;;;;6147912;22;87135;-85
2024/04/05 04:42:07;;;;;;;1.17;0.77;;;20.90;61.30;;;;;;6147361;22;87751;-85
2024/04/05 04:44:33;;;;;;;2.33;0.73;;;20.80;61.40;;;;;;6146497;22;88638;-86
2024/04/05 04:46:59;;;;;;;3.67;1.52;;;20.90;61.40;;;;;;6146370;22;88029;-86
2024/04/05 04:49:24;;;;;;;1.65;0.60;;;20.90;61.50;;;;;;6147131;22;86351;-83
2024/04/05 04:51:50;;;;;;;1.13;0.60;;;20.80;61.30;;;;;;6148999;22;87539;-87
2024/04/05 04:54:16;;;;;;;0.93;0.60;;;20.90;61.40;;;;;;6147387;22;87549;-86
2024/04/05 04:56:42;;;;;;;0.90;0.50;;;20.90;61.40;;;;;;6146064;22;88644;-85
2024/04/05 04:59:13;;;;;;;0.80;0.55;;;20.90;61.50;;;;;;6146899;22;87326;-85
2024/04/05 05:01:40;;;;;;;1.65;0.57;;;20.80;61.40;;;;;;6147675;22;87314;-85
2024/04/05 05:04:06;;;;;;;1.40;0.65;;;20.80;61.40;;;;;;6149112;22;88011;-83
2024/04/05 05:06:32;;;;;;;0.90;0.52;;;20.80;61.30;;;;;;6146892;22;87407;-82
2024/04/05 05:08:58;;;;;;;4.18;0.63;;;20.80;61.40;;;;;;6120296;22;86962;-82
2024/04/05 05:11:25;;;;;;;0.63;0.52;;;20.80;61.30;;;;;;6146995;22;87418;-83
2024/04/05 05:13:51;;;;;;;1.05;0.50;;;20.80;61.20;;;;;;6146699;22;87111;-83
2024/04/05 05:16:18;;;;;;;0.98;0.65;;;20.80;61.40;;;;;;6146734;22;87344;-86
2024/04/05 05:18:44;;;;;;;1.40;0.80;;;20.80;61.30;;;;;;6147315;22;87521;-85
2024/04/05 05:21:10;;;;;;;1.02;0.77;;;20.80;61.40;;;;;;6132006;22;89500;-84
2024/04/05 05:23:36;;;;;;;1.45;0.60;;;20.80;61.50;;;;;;6144908;22;87534;-85
2024/04/05 05:26:04;;;;;;;0.93;0.70;;;20.80;61.60;;;;;;6132307;22;87224;-85
2024/04/05 05:28:30;;;;;;;0.70;0.57;;;20.80;61.40;;;;;;6145872;22;87313;-85
2024/04/05 05:30:56;;;;;;;1.67;0.90;;;20.80;61.40;;;;;;6146366;22;87199;-84
2024/04/05 05:33:22;;;;;;;1.55;0.70;;;20.80;61.50;;;;;;6128558;22;87742;-84
2024/04/05 05:35:48;;;;;;;1.50;0.70;;;20.80;61.50;;;;;;6145747;22;87216;-84
2024/04/05 05:38:16;;;;;;;1.50;0.60;;;20.80;61.30;;;;;;6147620;22;86602;-85
2024/04/05 05:40:49;;;;;;;1.35;0.70;;;20.80;61.30;;;;;;6147180;22;86878;-83
2024/04/05 05:43:15;;;;;;;1.15;0.57;;;20.80;61.50;;;;;;6147642;22;88065;-86
2024/04/05 05:45:41;;;;;;;1.02;0.82;;;20.80;61.40;;;;;;6147941;22;87805;-85
2024/04/05 05:48:07;;;;;;;2.63;1.45;;;20.80;61.30;;;;;;6147191;22;87438;-84
2024/04/05 05:50:33;;;;;;;1.17;0.68;;;20.90;61.30;;;;;;6147228;22;87560;-83
2024/04/05 05:52:58;;;;;;;2.80;0.90;;;20.90;61.40;;;;;;6147924;22;87382;-83
2024/04/05 05:55:24;;;;;;;2.08;0.90;;;20.90;61.30;;;;;;6146864;22;87398;-85
2024/04/05 05:57:50;;;;;;;1.35;0.70;;;21.00;61.20;;;;;;6149025;22;88093;-83
2024/04/05 06:00:17;;;;;;;1.42;0.60;;;20.90;61.10;;;;;;6147512;22;87528;-86
2024/04/05 06:02:43;;;;;;;0.88;0.60;;;20.90;60.90;;;;;;6146962;22;87830;-84
2024/04/05 06:05:10;;;;;;;1.17;0.55;;;20.90;60.90;;;;;;6120351;22;89693;-85
2024/04/05 06:07:36;;;;;;;1.48;1.02;;;21.00;60.80;;;;;;6147924;22;86845;-85
2024/04/05 06:10:02;;;;;;;2.22;0.60;;;20.90;60.80;;;;;;6148200;22;88153;-85
2024/04/05 06:12:29;;;;;;;1.30;0.70;;;20.90;60.70;;;;;;6147180;22;87458;-83
2024/04/05 06:14:56;;;;;;;3.45;0.90;;;20.90;60.70;;;;;;6147253;22;87508;-84
2024/04/05 06:17:35;;;;;;;1.48;0.60;;;20.90;60.70;;;;;;6131599;22;87709;-90
2024/04/05 06:20:06;;;;;;;1.27;0.55;;;21.00;60.80;;;;;;6149903;22;87368;-91
2024/04/05 06:22:33;;;;;;;2.45;0.90;;;21.00;60.70;;;;;;6150692;22;88111;-89
2024/04/05 06:24:59;;;;;;;3.97;1.08;;;21.10;60.80;;;;;;6152270;22;87798;-88
2024/04/05 06:27:25;;;;;;;1.17;0.70;;;21.20;60.80;;;;;;6150510;22;86575;-91
2024/04/05 06:29:55;;;;;;;2.03;0.75;;;21.30;60.40;;;;;;6132586;22;87505;-86
2024/04/05 06:32:22;;;;;;;1.17;0.80;;;21.40;60.50;;;;;;6121111;22;89687;-91
2024/04/05 06:34:48;;;;;;;1.27;0.68;;;21.50;60.10;;;;;;6136186;22;88352;-89
2024/04/05 06:37:14;;;;;;;1.60;0.63;;;21.60;60.00;;;;;;6150926;22;87231;-91
2024/04/05 06:39:41;;;;;;;1.33;0.90;;;21.70;59.90;;;;;;6122934;22;89228;-84
2024/04/05 06:42:07;;;;;;;2.38;0.63;;;21.70;59.70;;;;;;6152434;22;86822;-91
2024/04/05 06:44:36;;;;;;;2.33;0.80;;;21.80;59.90;;;;;;6150338;22;87823;-90
2024/04/05 06:47:06;;;;;;;;;;;21.80;59.80;;;;;;6125017;22;87064;-90
2024/04/05 06:49:39;;;;;;;2.78;0.80;;;21.90;60.10;;;;;;6152900;22;87840;-87
2024/04/05 06:52:06;;;;;;;3.20;0.50;;;21.90;60.30;;;;;;6153537;22;87001;-87
2024/04/05 06:54:35;;;;;;;4.30;0.70;;;21.80;60.40;;;;;;6150961;22;87343;-92
2024/04/05 06:57:02;;;;;;;1.10;0.70;;;21.90;60.80;;;;;;6150826;22;87204;-88
2024/04/05 06:59:32;;;;;;;3.83;0.75;;;21.90;60.60;;;;;;6149371;22;88377;-88
2024/04/05 07:01:58;;;;;;;1.60;0.70;;;21.90;60.90;;;;;;6150219;22;87465;-92
2024/04/05 07:04:25;;;;;;;1.10;0.80;;;21.90;60.90;;;;;;6123488;22;90448;-89
2024/04/05 07:06:51;;;;;;;5.70;0.90;;;21.90;61.20;;;;;;6151590;22;88276;-89
2024/04/05 07:09:20;;;;;;;3.67;0.82;;;21.80;61.20;;;;;;6151812;22;87173;-90
2024/04/05 07:11:46;;;;;;;3.60;0.85;;;21.80;61.30;;;;;;6151740;22;87505;-88
2024/04/05 07:14:14;;;;;;;2.10;0.80;;;21.80;61.30;;;;;;6151060;22;87571;-87
2024/04/05 07:16:40;;;;;;;1.67;0.80;;;21.70;61.70;;;;;;6153022;22;87651;-92
2024/04/05 07:19:05;;;;;;;1.92;0.68;;;21.70;62.10;;;;;;6157647;22;87206;-86
2024/04/05 07:21:49;;;;;;;7.18;1.45;;;21.60;62.50;;;;;;6140771;22;87461;-88
2024/04/05 07:24:15;;;;;;;3.40;1.05;;;21.60;62.30;;;;;;6150621;22;88126;-91
2024/04/05 07:26:43;;;;;;;5.20;0.95;;;21.60;61.90;;;;;;6130549;22;87461;-89
2024/04/05 07:42:27;;;;;;;8.20;1.88;;;21.60;61.30;;;;;;5025851;28;86311;-69
2024/04/05 07:44:57;;;;;;;4.63;1.65;;;21.60;62.10;;;;;;5041490;27;86390;-68
2024/04/05 07:47:23;;;;;;;7.47;1.25;;;21.70;62.10;;;;;;5042064;27;86082;-69
2024/04/05 07:49:53;;;;;;;2.42;1.15;;;21.80;61.80;;;;;;5039080;27;86884;-69
2024/04/05 07:52:23;;;;;;;4.35;1.00;;;21.90;61.10;;;;;;5039742;27;87261;-70
2024/04/05 07:54:49;;;;;;;;;;;21.90;60.70;;;;;;5027977;27;85809;-69
2024/04/05 07:57:14;;;;;;;2.72;1.33;;;22.00;60.40;;;;;;5041121;27;86302;-70
2024/04/05 07:59:42;;;;;;;6.68;1.15;;;22.00;60.00;;;;;;5040812;27;85915;-73
2024/04/05 08:02:09;;;;;;;7.00;1.40;;;22.00;60.00;;;;;;5038928;27;86770;-69
2024/04/05 08:04:36;;;;;;;6.90;1.88;;;22.10;60.40;;;;;;4095240;27;10001096;-69
2024/04/05 08:07:02;;;;;;;4.00;1.45;;;22.10;60.50;;;;;;4970163;28;86441;-70
2024/04/05 08:09:29;;;;;;;4.05;1.67;;;22.10;60.70;;;;;;4974168;28;86480;-69
2024/04/05 08:11:55;;;;;;;4.97;1.90;;;22.10;60.70;;;;;;4962771;28;85830;-69
2024/04/05 08:14:20;;;;;;;5.72;1.77;;;22.10;60.70;;;;;;4984078;28;86957;-68
2024/04/05 08:16:48;;;;;;;4.55;1.27;;;22.10;60.70;;;;;;4971965;28;87197;-73
2024/04/05 08:19:14;;;;;;;9.07;1.90;;;22.20;60.90;;;;;;4965873;28;86319;-69
2024/04/05 08:21:40;;;;;;;6.53;1.85;;;22.20;60.80;;;;;;4988895;28;86432;-69
2024/04/05 08:24:07;;;;;;;7.78;1.42;;;22.20;60.90;;;;;;4985169;28;87392;-67
2024/04/05 08:26:34;;;;;;;5.05;1.85;;;22.20;61.00;;;;;;4973892;28;86601;-70
2024/04/05 08:28:59;;;;;;;5.50;2.05;;;22.20;61.10;;;;;;4979527;28;86212;-67
2024/04/05 08:31:28;;;;;;;6.18;1.48;;;22.20;61.30;;;;;;4982213;28;86366;-70
2024/04/05 08:33:56;;;;;;;5.72;1.27;;;22.10;61.50;;;;;;4976661;28;86885;-71
2024/04/05 08:36:23;;;;;;;8.25;2.22;;;22.10;61.60;;;;;;4961255;28;87110;-68
2024/04/05 08:38:55;;;;;;;4.60;1.50;;;22.10;61.50;;;;;;4957993;28;85784;-70
2024/04/05 08:41:26;;;;;;;7.50;1.75;;;22.10;60.70;;;;;;4954350;28;86258;-67
2024/04/05 08:43:57;;;;;;;7.30;1.77;;;22.10;61.00;;;;;;4938344;28;86869;-66
2024/04/05 08:46:22;;;;;;;4.75;1.83;;;22.10;61.40;;;;;;4938532;28;86488;-66
2024/04/05 08:48:50;;;;;;;6.28;1.92;;;22.10;61.80;;;;;;4934430;28;86561;-69
2024/04/05 08:51:16;;;;;;;4.88;1.77;;;22.10;62.50;;;;;;4941618;28;86139;-68
2024/04/05 08:53:42;;;;;;;9.60;2.25;;;22.20;62.80;;;;;;4939411;28;87118;-66
2024/04/05 08:56:08;;;;;;;5.63;1.83;;;22.20;62.80;;;;;;4934517;28;86779;-70
2024/04/05 08:58:35;;;;;;;5.45;1.85;;;22.20;63.10;;;;;;4943284;28;86218;-65
2024/04/05 09:01:02;;;;;;;4.57;1.77;;;22.20;63.20;;;;;;4952631;28;86623;-64
2024/04/05 09:03:28;;;;;;;4.95;1.90;;;22.30;63.10;;;;;;4954181;28;88684;-65
2024/04/05 09:05:55;;;;;;;3.92;1.83;;;22.30;63.40;;;;;;4950252;28;86608;-65
2024/04/05 09:08:21;;;;;;;8.55;2.00;;;22.30;63.80;;;;;;4952123;28;88206;-65
2024/04/05 09:10:50;;;;;;;8.80;2.63;;;22.30;64.20;;;;;;4951357;28;86560;-65
2024/04/05 09:13:20;;;;;;;8.82;2.28;;;22.40;64.10;;;;;;4951757;28;86270;-66
2024/04/05 09:15:53;;;;;;;5.82;1.95;;;22.40;64.00;;;;;;4946907;28;86468;-64
2024/04/05 09:18:26;;;;;;;12.65;2.95;;;22.40;63.50;;;;;;4950951;28;86745;-65
2024/04/05 09:20:52;;;;;;;5.60;2.17;;;22.40;63.20;;;;;;4951671;28;86020;-67
2024/04/05 09:23:18;;;;;;;7.32;2.72;;;22.40;63.30;;;;;;4950413;28;89308;-69
2024/04/05 09:25:44;;;;;;;9.35;3.65;;;22.40;64.00;;;;;;4954215;28;85945;-69
2024/04/05 09:28:14;;;;;;;5.75;2.17;;;22.40;64.40;;;;;;4952974;28;85654;-68
2024/04/05 09:30:40;;;;;;;8.77;3.00;;;22.40;64.20;;;;;;4955396;28;86383;-68
2024/04/05 09:33:09;;;;;;;6.53;2.05;;;22.40;64.10;;;;;;4951343;28;86043;-67
2024/04/05 09:35:42;;;;;;;9.65;2.55;;;22.30;64.40;;;;;;4078866;28;10000645;-60
2024/04/05 09:38:08;;;;;;;13.60;2.58;;;22.30;64.30;;;;;;4952445;28;87029;-61
2024/04/05 09:40:39;;;;;;;11.32;2.83;;;22.40;64.10;;;;;;4950643;28;87355;-60
2024/04/05 09:43:07;;;;;;;11.05;3.47;;;22.30;64.60;;;;;;4951777;28;86479;-68
2024/04/05 09:45:38;;;;;;;7.23;2.20;;;22.30;65.00;;;;;;4950853;28;86352;-67
2024/04/05 09:48:04;;;;;;;8.57;3.38;;;22.40;64.70;;;;;;4951765;28;87844;-68
2024/04/05 09:50:30;;;;;;;8.68;2.60;;;22.40;64.50;;;;;;4952199;28;87476;-68
2024/04/05 09:52:59;;;;;;;11.23;2.97;;;22.40;64.60;;;;;;4952331;28;86168;-70
2024/04/05 09:55:29;;;;;;;7.93;2.17;;;22.40;64.40;;;;;;4951686;28;86165;-71
2024/04/05 09:57:56;;;;;;;11.48;3.10;;;22.40;64.60;;;;;;4951113;28;86846;-67
2024/04/05 10:00:24;;;;;;;11.05;2.13;;;22.40;64.40;;;;;;4953699;28;85776;-68
2024/04/05 10:02:52;;;;;;;9.50;3.20;;;22.40;64.60;;;;;;4953355;28;87118;-69
2024/04/05 10:05:24;;;;;;;6.60;2.05;;;22.40;64.90;;;;;;4949611;28;85964;-67
2024/04/05 10:07:51;;;;;;;5.07;1.70;;;22.40;64.70;;;;;;4952368;28;85842;-69
2024/04/05 10:10:16;;;;;;;8.38;2.75;;;22.40;64.90;;;;;;4950784;28;85848;-70
2024/04/05 10:12:43;;;;;;;8.57;2.80;;;22.40;65.20;;;;;;4951511;28;87184;-69
2024/04/05 10:15:09;;;;;;;11.50;3.42;;;22.40;65.30;;;;;;4937055;28;86275;-67
2024/04/05 10:17:37;;;;;;;9.15;1.98;;;22.40;65.40;;;;;;4939460;28;86734;-69
2024/04/05 10:20:10;;;;;;;6.45;2.25;;;22.40;63.90;;;;;;4940565;28;86877;-69
2024/04/05 10:22:38;;;;;;;6.63;2.30;;;22.40;64.60;;;;;;4957021;28;86376;-69
2024/04/05 10:25:06;;;;;;;7.65;2.22;;;22.40;64.70;;;;;;4939383;28;86222;-69
2024/04/05 10:27:32;;;;;;;6.47;2.20;;;22.40;64.80;;;;;;4940921;28;86386;-66
2024/04/05 10:30:06;;;;;;;5.63;2.15;;;22.40;64.70;;;;;;4939371;28;87036;-65
2024/04/05 10:32:34;;;;;;;6.38;1.77;;;22.40;64.60;;;;;;4937933;28;88106;-66
2024/04/05 10:35:09;;;;;;;9.57;2.55;;;22.40;64.70;;;;;;4960399;28;86052;-67
2024/04/05 10:37:39;;;;;;;11.30;2.88;;;22.40;64.90;;;;;;4935840;28;87920;-67
2024/04/05 10:40:10;;;;;;;11.90;2.63;;;22.40;64.90;;;;;;4939953;28;86478;-67
2024/04/05 10:42:37;;;;;;;6.72;2.55;;;22.40;65.10;;;;;;4939643;28;86045;-67
2024/04/05 10:45:05;;;;;;;9.13;2.30;;;22.40;64.80;;;;;;4935495;28;85813;-66
2024/04/05 10:47:33;;;;;;;5.15;1.10;;;22.40;64.20;;;;;;4941776;28;87075;-69
2024/04/05 10:50:04;;;;;;;5.47;1.65;;;22.40;62.20;;;;;;4939401;28;86182;-67
2024/04/05 10:52:35;;;;;;;3.75;0.80;;;22.40;62.00;;;;;;4939406;28;86429;-66
2024/04/05 10:55:20;;;;;;;7.97;1.17;;;22.40;61.60;;;;;;4944197;28;85732;-71
2024/04/05 10:57:46;;;;;;;3.75;1.05;;;22.40;62.10;;;;;;4941858;28;88306;-69
2024/04/05 11:00:14;;;;;;;11.40;1.38;;;22.40;61.50;;;;;;4944434;28;86572;-68
2024/04/05 11:02:43;;;;;;;2.40;0.90;;;22.40;61.20;;;;;;4943197;28;86122;-68
2024/04/05 11:05:13;;;;;;;;;;;22.40;61.10;;;;;;4941527;28;86021;-68
2024/04/05 11:07:44;;;;;;;1.98;1.30;;;22.40;60.60;;;;;;4946000;28;86702;-68
2024/04/05 11:10:20;;;;;;;2.67;1.00;;;22.40;60.30;;;;;;4941318;28;86964;-70
2024/04/05 11:12:48;;;;;;;2.40;1.02;;;22.40;60.30;;;;;;4942602;28;85970;-67
2024/04/05 11:15:18;;;;;;;5.70;2.22;;;22.40;60.20;;;;;;4949200;28;86152;-68
2024/04/05 11:17:46;;;;;;;4.75;1.17;;;22.40;61.70;;;;;;4942730;28;87009;-70
2024/04/05 11:20:13;;;;;;;5.35;2.28;;;22.30;61.70;;;;;;4941619;28;86485;-69
2024/04/05 11:22:42;;;;;;;7.35;1.90;;;22.40;62.00;;;;;;4956691;28;86778;-70
2024/04/05 11:25:08;;;;;;;4.22;1.58;;;22.40;62.30;;;;;;4945528;28;86900;-69
2024/04/05 11:27:35;;;;;;;6.10;1.75;;;22.40;62.60;;;;;;4943932;28;86911;-68
2024/04/05 11:30:05;;;;;;;6.28;1.98;;;22.40;63.10;;;;;;4948151;28;86352;-68
2024/04/05 11:32:32;;;;;;;3.75;2.10;;;22.40;63.40;;;;;;4940431;28;86405;-69
2024/04/05 11:35:03;;;;;;;4.75;1.77;;;22.40;64.20;;;;;;4941789;28;85938;-68
2024/04/05 11:37:29;;;;;;;5.97;1.58;;;22.40;64.20;;;;;;4944342;28;91133;-69
2024/04/05 11:39:59;;;;;;;5.30;2.10;;;22.50;64.60;;;;;;4944074;28;87267;-70
2024/04/05 11:42:25;;;;;;;;;;;22.50;64.30;;;;;;4957478;28;86455;-69
2024/04/05 11:44:51;;;;;;;3.90;1.35;;;22.40;64.20;;;;;;4943518;28;86160;-68
2024/04/05 11:47:26;;;;;;;4.90;2.42;;;22.50;64.70;;;;;;4945897;28;88192;-68
2024/04/05 11:49:52;;;;;;;5.90;1.65;;;22.40;64.70;;;;;;4946355;28;87744;-70
2024/04/05 11:52:18;;;;;;;3.55;1.42;;;22.40;65.30;;;;;;4940112;28;87237;-69
2024/04/05 11:54:46;;;;;;;4.30;1.60;;;22.40;65.60;;;;;;4941629;28;86197;-72
2024/04/05 11:57:15;;;;;;;3.72;1.45;;;22.50;66.40;;;;;;4947696;28;91907;-71
2024/04/05 11:59:42;;;;;;;;;;;22.40;62.30;;;;;;4935595;28;86770;-74
2024/04/05 12:02:08;;;;;;;3.80;1.23;;;22.40;61.80;;;;;;4940836;28;86597;-77
2024/04/05 12:04:36;;;;;;;5.97;1.80;;;22.30;65.30;;;;;;4938194;28;85572;-69
2024/04/05 12:07:03;;;;;;;6.47;1.73;;;22.40;65.10;;;;;;4951454;28;87803;-69
2024/04/05 12:09:28;;;;;;;4.35;1.98;;;22.40;65.70;;;;;;4943669;28;86331;-73
2024/04/05 12:11:54;;;;;;;6.50;1.73;;;22.40;65.70;;;;;;4940934;28;85880;-74
2024/04/05 12:14:35;;;;;;;6.03;2.40;;;22.50;66.20;;;;;;4945489;28;85919;-71
2024/04/05 12:17:01;;;;;;;3.65;1.60;;;22.50;66.20;;;;;;4941303;28;87014;-70
2024/04/05 12:19:28;;;;;;;7.90;1.83;;;22.50;66.10;;;;;;4943133;28;86517;-71
2024/04/05 12:21:55;;;;;;;4.97;2.03;;;22.50;66.40;;;;;;4941124;28;86620;-66
2024/04/05 12:24:21;;;;;;;6.75;2.05;;;22.50;66.40;;;;;;4948842;28;86200;-70
2024/04/05 12:26:47;;;;;;;11.75;2.53;;;22.50;67.20;;;;;;4947977;28;87797;-74
2024/04/05 12:29:13;;;;;;;4.20;1.98;;;22.50;66.60;;;;;;4946002;28;86960;-69
2024/04/05 12:31:40;;;;;;;3.30;1.27;;;22.50;66.40;;;;;;4949781;28;86115;-67
2024/04/05 12:34:07;;;;;;;6.93;2.83;;;22.50;66.40;;;;;;4949015;28;86111;-69
2024/04/05 12:36:33;;;;;;;5.22;1.88;;;22.50;66.40;;;;;;4941314;28;88250;-70
2024/04/05 12:39:06;;;;;;;5.72;1.67;;;22.50;66.20;;;;;;4950606;28;88449;-68
2024/04/05 12:41:36;;;;;;;6.18;1.23;;;22.50;66.20;;;;;;4964070;28;86205;-69
2024/04/05 12:44:03;;;;;;;7.97;2.20;;;22.50;66.20;;;;;;4948454;28;86684;-77
2024/04/05 12:46:29;;;;;;;4.68;1.65;;;22.50;66.10;;;;;;4946537;28;87400;-75
2024/04/05 12:48:55;;;;;;;4.18;1.40;;;22.50;66.00;;;;;;4958350;28;86835;-73
2024/04/05 12:51:21;;;;;;;7.13;2.72;;;22.60;66.00;;;;;;4951157;28;86198;-72
2024/04/05 12:53:46;;;;;;;3.65;1.52;;;22.60;65.90;;;;;;4940389;28;86612;-70
2024/04/05 12:56:13;;;;;;;3.15;2.35;;;22.50;65.30;;;;;;4946160;28;88003;-70
2024/04/05 12:58:45;;;;;;;3.60;1.40;;;22.50;65.80;;;;;;4947226;28;87124;-65
2024/04/05 13:01:12;;;;;;;3.70;1.98;;;22.50;65.90;;;;;;4959631;28;86657;-74